createdAt,value
2019-01-09T00:00:50.299Z,2.70
2019-01-09T00:03:20.039Z,2.60
2019-01-09T00:05:49.890Z,2.70
2019-01-09T00:08:20.560Z,2.70
2019-01-09T00:10:50.303Z,2.70
2019-01-09T00:13:20.022Z,2.70
2019-01-09T00:15:49.956Z,2.70
2019-01-09T00:18:19.788Z,2.70
2019-01-09T00:20:50.969Z,2.70
2019-01-09T00:23:20.704Z,2.60
2019-01-09T00:25:50.385Z,2.60
2019-01-09T00:28:20.130Z,2.60
2019-01-09T00:30:49.870Z,2.50
2019-01-09T00:33:19.609Z,2.50
2019-01-09T00:35:49.292Z,2.50
2019-01-09T00:38:19.006Z,2.40
2019-01-09T00:40:49.763Z,2.40
2019-01-09T00:43:19.570Z,2.30
2019-01-09T00:45:49.433Z,2.30
2019-01-09T00:48:19.231Z,2.30
2019-01-09T00:50:49.821Z,2.30
2019-01-09T00:53:20.598Z,2.30
2019-01-09T00:55:50.322Z,2.40
2019-01-09T00:58:20.174Z,2.40
2019-01-09T01:00:49.933Z,2.40
2019-01-09T01:03:40.528Z,2.40
2019-01-09T01:06:31.074Z,2.20
2019-01-09T01:09:18.778Z,2.20
2019-01-09T01:12:08.812Z,2.10
2019-01-09T01:14:41.550Z,2.00
2019-01-09T01:17:17.518Z,2.00
2019-01-09T01:20:12.325Z,1.90
2019-01-09T01:23:19.696Z,1.90
2019-01-09T01:25:57.943Z,1.80
2019-01-09T01:28:51.461Z,1.80
2019-01-09T01:31:29.769Z,1.70
2019-01-09T01:34:20.352Z,1.70
2019-01-09T01:36:55.842Z,1.70
2019-01-09T01:39:34.515Z,1.80
2019-01-09T01:42:13.033Z,1.70
2019-01-09T01:44:45.881Z,1.80
2019-01-09T01:47:41.097Z,1.70
2019-01-09T01:50:22.579Z,1.70
2019-01-09T01:53:29.663Z,1.70
2019-01-09T01:56:23.212Z,1.70
2019-01-09T01:59:04.536Z,1.80
2019-01-09T02:01:43.192Z,1.80
2019-01-09T02:04:34.791Z,1.80
2019-01-09T02:07:24.143Z,1.90
2019-01-09T02:10:05.801Z,1.90
2019-01-09T02:12:44.226Z,2.00
2019-01-09T02:15:28.588Z,2.00
2019-01-09T02:18:01.274Z,1.90
2019-01-09T02:20:54.773Z,1.90
2019-01-09T02:23:36.591Z,1.80
2019-01-09T02:26:12.143Z,1.70
2019-01-09T02:29:02.700Z,1.60
2019-01-09T02:31:35.407Z,1.40
2019-01-09T02:34:05.185Z,1.40
2019-01-09T02:36:34.839Z,1.50
2019-01-09T02:39:05.195Z,1.50
2019-01-09T02:41:34.849Z,1.60
2019-01-09T02:44:04.597Z,1.60
2019-01-09T02:46:34.272Z,1.70
2019-01-09T02:49:04.083Z,1.70
2019-01-09T02:51:34.720Z,1.70
2019-01-09T02:54:04.482Z,1.70
2019-01-09T02:56:34.222Z,1.70
2019-01-09T02:59:04.027Z,1.60
2019-01-09T03:01:33.641Z,1.70
2019-01-09T03:04:03.341Z,1.70
2019-01-09T03:06:33.141Z,1.70
2019-01-09T03:09:02.798Z,1.70
2019-01-09T03:11:33.478Z,1.70
2019-01-09T03:14:04.264Z,1.70
2019-01-09T03:16:34.089Z,1.70
2019-01-09T03:19:03.872Z,1.80
2019-01-09T03:21:33.707Z,1.80
2019-01-09T03:24:03.447Z,1.80
2019-01-09T03:26:33.070Z,1.80
2019-01-09T03:29:02.844Z,1.90
2019-01-09T03:31:32.603Z,1.90
2019-01-09T03:34:02.352Z,1.90
2019-01-09T03:36:32.984Z,1.90
2019-01-09T03:39:03.596Z,1.90
2019-01-09T03:41:33.336Z,2.00
2019-01-09T03:44:03.142Z,2.00
2019-01-09T03:46:33.034Z,2.00
2019-01-09T03:49:03.735Z,2.00
2019-01-09T03:51:34.403Z,2.00
2019-01-09T03:54:04.189Z,2.00
2019-01-09T03:56:33.821Z,2.00
2019-01-09T03:59:03.557Z,1.90
2019-01-09T04:01:33.357Z,1.90
2019-01-09T04:04:03.030Z,1.80
2019-01-09T04:06:41.653Z,1.80
2019-01-09T04:09:04.631Z,1.80
2019-01-09T04:11:34.271Z,1.80
2019-01-09T04:14:04.023Z,1.80
2019-01-09T04:16:34.096Z,1.70
2019-01-09T04:19:03.807Z,1.80
2019-01-09T04:21:33.549Z,1.80
2019-01-09T04:24:03.165Z,1.80
2019-01-09T04:26:33.927Z,1.80
2019-01-09T04:29:03.523Z,1.80
2019-01-09T04:31:34.314Z,1.80
2019-01-09T04:34:04.121Z,1.80
2019-01-09T04:36:33.739Z,1.80
2019-01-09T04:39:04.866Z,1.80
2019-01-09T04:41:34.628Z,1.80
2019-01-09T04:44:05.291Z,1.70
2019-01-09T04:46:35.880Z,1.70
2019-01-09T04:49:05.598Z,1.60
2019-01-09T04:51:35.295Z,1.70
2019-01-09T04:54:04.954Z,1.70
2019-01-09T04:56:34.644Z,1.70
2019-01-09T04:59:05.214Z,1.70
2019-01-09T05:01:34.999Z,1.70
2019-01-09T05:04:04.682Z,1.70
2019-01-09T05:06:34.509Z,1.70
2019-01-09T05:09:05.735Z,1.60
2019-01-09T05:11:35.409Z,1.60
2019-01-09T05:14:05.179Z,1.50
2019-01-09T05:16:34.951Z,1.50
2019-01-09T05:19:04.837Z,1.50
2019-01-09T05:21:34.658Z,1.40
2019-01-09T05:24:04.465Z,1.40
2019-01-09T05:26:34.199Z,1.40
2019-01-09T05:29:04.005Z,1.40
2019-01-09T05:31:33.744Z,1.40
2019-01-09T05:34:04.303Z,1.30
2019-01-09T05:36:33.977Z,1.30
2019-01-09T05:39:05.446Z,1.20
2019-01-09T05:41:35.298Z,1.20
2019-01-09T05:44:05.111Z,1.30
2019-01-09T05:46:34.863Z,1.30
2019-01-09T05:49:04.551Z,1.30
2019-01-09T05:51:34.248Z,1.30
2019-01-09T05:54:03.983Z,1.30
2019-01-09T05:56:33.674Z,1.30
2019-01-09T05:59:03.358Z,1.30
2019-01-09T06:01:33.024Z,1.30
2019-01-09T06:04:02.919Z,1.30
2019-01-09T06:06:32.576Z,1.30
2019-01-09T06:09:02.333Z,1.30
2019-01-09T06:11:33.290Z,1.20
2019-01-09T06:14:03.057Z,1.20
2019-01-09T06:16:32.799Z,1.20
2019-01-09T06:19:02.479Z,1.20
2019-01-09T06:21:33.852Z,1.20
2019-01-09T06:24:03.545Z,1.20
2019-01-09T06:26:33.213Z,1.10
2019-01-09T06:29:02.999Z,1.10
2019-01-09T06:31:32.670Z,1.00
2019-01-09T06:34:02.390Z,1.10
2019-01-09T06:36:32.052Z,1.10
2019-01-09T06:39:01.786Z,1.10
2019-01-09T06:41:31.476Z,1.10
2019-01-09T06:44:01.219Z,1.10
2019-01-09T06:46:30.818Z,1.10
2019-01-09T06:49:01.511Z,1.10
2019-01-09T06:51:31.138Z,1.00
2019-01-09T06:54:00.960Z,1.10
2019-01-09T06:56:32.522Z,1.10
2019-01-09T06:59:02.275Z,1.10
2019-01-09T07:01:33.873Z,1.10
2019-01-09T07:04:03.642Z,1.10
2019-01-09T07:06:33.343Z,1.10
2019-01-09T07:09:04.607Z,1.10
2019-01-09T07:11:34.310Z,1.10
2019-01-09T07:14:04.105Z,1.10
2019-01-09T07:16:34.710Z,1.10
2019-01-09T07:19:04.450Z,1.10
2019-01-09T07:21:34.142Z,1.10
2019-01-09T07:24:03.893Z,1.10
2019-01-09T07:26:33.631Z,1.20
2019-01-09T07:29:03.305Z,1.20
2019-01-09T07:31:33.077Z,1.20
2019-01-09T07:34:02.939Z,1.20
2019-01-09T07:36:32.808Z,1.20
2019-01-09T07:39:02.544Z,1.30
2019-01-09T07:41:33.211Z,1.30
2019-01-09T07:44:03.445Z,1.30
2019-01-09T07:46:33.198Z,1.30
2019-01-09T07:49:02.914Z,1.30
2019-01-09T07:51:32.653Z,1.30
2019-01-09T07:54:02.270Z,1.30
2019-01-09T07:56:32.070Z,1.30
2019-01-09T07:59:01.742Z,1.30
2019-01-09T08:01:31.434Z,1.30
2019-01-09T08:04:02.111Z,1.30
2019-01-09T08:06:31.877Z,1.40
2019-01-09T08:09:01.674Z,1.40
2019-01-09T08:11:31.565Z,1.40
2019-01-09T08:14:01.472Z,1.40
2019-01-09T08:16:31.162Z,1.40
2019-01-09T08:19:00.905Z,1.40
2019-01-09T08:21:30.508Z,1.40
2019-01-09T08:24:00.241Z,1.40
2019-01-09T08:26:30.511Z,1.40
2019-01-09T08:29:00.338Z,1.50
2019-01-09T08:31:33.604Z,1.40
2019-01-09T08:34:03.467Z,1.40
2019-01-09T08:36:33.254Z,1.40
2019-01-09T08:39:04.655Z,1.40
2019-01-09T08:41:34.550Z,1.40
2019-01-09T08:44:04.219Z,1.50
2019-01-09T08:46:33.983Z,1.50
2019-01-09T08:49:03.899Z,1.50
2019-01-09T08:51:33.855Z,1.50
2019-01-09T08:54:03.679Z,1.60
2019-01-09T08:56:33.382Z,1.50
2019-01-09T08:59:03.084Z,1.60
2019-01-09T09:01:32.734Z,1.60
2019-01-09T09:04:02.552Z,1.60
2019-01-09T09:06:32.275Z,1.50
2019-01-09T09:09:02.402Z,1.50
2019-01-09T09:11:32.171Z,1.50
2019-01-09T09:14:01.880Z,1.50
2019-01-09T09:16:36.836Z,1.50
2019-01-09T09:19:04.388Z,1.50
2019-01-09T09:21:33.998Z,1.50
2019-01-09T09:24:04.657Z,1.50
2019-01-09T09:26:34.323Z,1.50
2019-01-09T09:29:04.219Z,1.50
2019-01-09T09:31:33.850Z,1.50
2019-01-09T09:34:03.553Z,1.50
2019-01-09T09:36:33.298Z,1.50
2019-01-09T09:39:03.076Z,1.60
2019-01-09T09:41:32.937Z,1.70
2019-01-09T09:44:02.714Z,1.70
2019-01-09T09:46:32.397Z,1.80
2019-01-09T09:49:02.178Z,1.80
2019-01-09T09:51:31.969Z,1.80
2019-01-09T09:54:02.779Z,1.90
2019-01-09T09:56:32.446Z,1.90
2019-01-09T09:59:02.132Z,1.90
2019-01-09T10:01:31.826Z,1.90
2019-01-09T10:04:01.570Z,2.00
2019-01-09T10:06:31.220Z,2.00
2019-01-09T10:09:00.976Z,2.10
2019-01-09T10:11:30.579Z,2.10
2019-01-09T10:14:01.342Z,2.00
2019-01-09T10:16:31.010Z,2.00
2019-01-09T10:19:00.712Z,2.00
2019-01-09T10:21:31.313Z,2.00
2019-01-09T10:24:01.131Z,1.90
2019-01-09T10:26:30.821Z,1.90
2019-01-09T10:29:00.567Z,1.90
2019-01-09T10:31:30.253Z,1.90
2019-01-09T10:33:59.933Z,2.00
2019-01-09T10:36:29.703Z,1.90
2019-01-09T10:38:59.446Z,1.90
2019-01-09T10:41:30.133Z,1.90
2019-01-09T10:43:59.867Z,2.00
2019-01-09T10:46:30.706Z,2.00
2019-01-09T10:49:00.447Z,2.00
2019-01-09T10:51:30.261Z,2.10
2019-01-09T10:54:00.760Z,2.10
2019-01-09T10:56:30.764Z,2.10
2019-01-09T10:59:00.452Z,2.10
2019-01-09T11:01:30.278Z,2.00
2019-01-09T11:03:59.937Z,2.00
2019-01-09T11:06:29.702Z,2.00
2019-01-09T11:08:59.293Z,2.00
2019-01-09T11:11:29.059Z,1.90
2019-01-09T11:13:58.651Z,1.90
2019-01-09T11:16:28.423Z,2.00
2019-01-09T11:18:58.272Z,2.10
2019-01-09T11:21:27.958Z,2.10
2019-01-09T11:23:58.556Z,2.20
2019-01-09T11:26:28.426Z,2.30
2019-01-09T11:28:58.008Z,2.20
2019-01-09T11:31:27.762Z,2.20
2019-01-09T11:33:58.330Z,2.20
2019-01-09T11:36:28.090Z,2.20
2019-01-09T11:38:57.863Z,2.20
2019-01-09T11:41:27.616Z,2.30
2019-01-09T11:43:57.291Z,2.40
2019-01-09T11:46:27.145Z,2.40
2019-01-09T11:48:56.835Z,2.40
2019-01-09T11:51:26.599Z,2.40
2019-01-09T11:53:58.169Z,2.40
2019-01-09T11:56:28.794Z,2.30
2019-01-09T11:58:58.538Z,2.40
2019-01-09T12:01:29.190Z,2.30
2019-01-09T12:03:58.932Z,2.30
2019-01-09T12:06:28.627Z,2.20
2019-01-09T12:09:04.460Z,2.20
2019-01-09T12:11:29.993Z,2.20
2019-01-09T12:13:59.660Z,2.10
2019-01-09T12:16:29.335Z,2.20
2019-01-09T12:18:59.020Z,2.20
2019-01-09T12:21:28.835Z,2.20
2019-01-09T12:23:58.548Z,2.20
2019-01-09T12:26:28.249Z,2.10
2019-01-09T12:28:57.921Z,2.20
2019-01-09T12:31:27.673Z,2.20
2019-01-09T12:33:59.242Z,2.30
2019-01-09T12:36:29.050Z,2.20
2019-01-09T12:38:59.584Z,2.30
2019-01-09T12:41:29.418Z,2.30
2019-01-09T12:44:00.005Z,2.50
2019-01-09T12:46:29.759Z,2.60
2019-01-09T12:49:00.345Z,2.70
2019-01-09T12:51:30.160Z,2.70
2019-01-09T12:53:59.839Z,2.70
2019-01-09T12:56:31.982Z,2.70
2019-01-09T12:59:02.641Z,2.80
2019-01-09T13:01:34.349Z,2.80
2019-01-09T13:04:04.423Z,2.90
2019-01-09T13:06:34.245Z,2.80
2019-01-09T13:09:07.465Z,2.70
2019-01-09T13:11:37.172Z,2.60
2019-01-09T13:14:06.904Z,2.60
2019-01-09T13:16:36.598Z,2.50
2019-01-09T13:19:06.336Z,2.50
2019-01-09T13:21:36.070Z,2.40
2019-01-09T13:24:05.795Z,2.50
2019-01-09T13:26:35.584Z,2.40
2019-01-09T13:29:05.629Z,2.40
2019-01-09T13:31:35.399Z,2.40
2019-01-09T13:34:06.971Z,2.30
2019-01-09T13:36:36.720Z,2.20
2019-01-09T13:39:07.889Z,2.10
2019-01-09T13:41:37.740Z,2.10
2019-01-09T13:44:09.527Z,2.00
2019-01-09T13:46:39.365Z,1.90
2019-01-09T13:49:09.025Z,1.90
2019-01-09T13:51:39.833Z,1.80
2019-01-09T13:54:09.564Z,1.80
2019-01-09T13:56:39.286Z,1.70
2019-01-09T13:59:08.898Z,1.70
2019-01-09T14:01:39.718Z,1.60
2019-01-09T14:04:09.323Z,1.60
2019-01-09T14:06:39.099Z,1.60
2019-01-09T14:09:08.839Z,1.60
2019-01-09T14:11:38.553Z,1.60
2019-01-09T14:14:08.289Z,1.50
2019-01-09T14:16:37.993Z,1.60
2019-01-09T14:19:08.111Z,1.50
2019-01-09T14:21:37.868Z,1.60
2019-01-09T14:24:09.497Z,1.50
2019-01-09T14:26:39.196Z,1.50
2019-01-09T14:29:08.967Z,1.60
2019-01-09T14:31:38.647Z,1.60
2019-01-09T14:34:09.339Z,1.60
2019-01-09T14:36:39.042Z,1.60
2019-01-09T14:39:08.782Z,1.60
2019-01-09T14:41:38.534Z,1.60
2019-01-09T14:44:08.122Z,1.60
2019-01-09T14:46:38.701Z,1.50
2019-01-09T14:49:08.489Z,1.50
2019-01-09T14:51:43.034Z,1.50
2019-01-09T14:54:10.464Z,1.60
2019-01-09T14:56:40.154Z,1.60
2019-01-09T14:59:09.831Z,1.60
2019-01-09T15:01:39.591Z,1.60
2019-01-09T15:04:09.377Z,1.50
2019-01-09T15:06:39.281Z,1.40
2019-01-09T15:11:56.579Z,1.50
2019-01-09T15:14:26.197Z,1.40
2019-01-09T15:16:55.980Z,1.40
2019-01-09T15:19:25.616Z,1.40
2019-01-09T15:21:55.345Z,1.40
2019-01-09T15:24:25.023Z,1.30
2019-01-09T15:26:54.833Z,1.30
2019-01-09T15:29:24.435Z,1.30
2019-01-09T15:31:54.203Z,1.30
2019-01-09T15:34:23.878Z,1.30
2019-01-09T15:36:53.566Z,1.30
2019-01-09T15:39:25.834Z,1.30
2019-01-09T15:41:55.540Z,1.30
2019-01-09T15:44:25.279Z,1.20
2019-01-09T15:46:54.981Z,1.20
2019-01-09T15:49:24.733Z,1.20
2019-01-09T15:51:54.551Z,1.20
2019-01-09T15:54:24.163Z,1.10
2019-01-09T15:56:55.702Z,1.20
2019-01-09T15:59:27.493Z,1.20
2019-01-09T16:01:58.298Z,1.10
2019-01-09T16:04:28.076Z,1.10
2019-01-09T16:06:57.905Z,1.10
2019-01-09T16:09:27.647Z,1.10
2019-01-09T16:11:58.571Z,1.10
2019-01-09T16:14:28.310Z,1.10
2019-01-09T16:16:58.022Z,1.00
2019-01-09T16:19:27.705Z,0.90
2019-01-09T16:21:58.470Z,0.90
2019-01-09T16:24:28.149Z,0.80
2019-01-09T16:26:58.907Z,0.70
2019-01-09T16:29:28.691Z,0.60
2019-01-09T16:31:58.452Z,0.50
2019-01-09T16:34:28.123Z,0.40
2019-01-09T16:36:58.792Z,0.50
2019-01-09T16:39:30.992Z,0.40
2019-01-09T16:42:03.126Z,0.30
2019-01-09T16:44:33.648Z,0.30
2019-01-09T16:47:03.453Z,0.30
2019-01-09T16:49:34.151Z,0.30
2019-01-09T16:52:03.965Z,0.30
2019-01-09T16:54:34.754Z,0.30
2019-01-09T16:57:04.789Z,0.30
2019-01-09T16:59:35.180Z,0.40
2019-01-09T17:02:05.029Z,0.30
2019-01-09T17:04:34.923Z,0.40
2019-01-09T17:07:05.057Z,0.40
2019-01-09T17:09:34.766Z,0.40
2019-01-09T17:12:04.636Z,0.40
2019-01-09T17:14:34.348Z,0.30
2019-01-09T17:17:04.774Z,0.40
2019-01-09T17:19:34.493Z,0.40
2019-01-09T17:22:04.304Z,0.40
2019-01-09T17:24:34.119Z,0.30
2019-01-09T17:27:04.223Z,0.30
2019-01-09T17:29:34.001Z,0.40
2019-01-09T17:32:03.855Z,0.30
2019-01-09T17:34:33.681Z,0.30
2019-01-09T17:37:05.459Z,0.30
2019-01-09T17:39:35.240Z,0.30
2019-01-09T17:42:06.667Z,0.30
2019-01-09T17:44:36.497Z,0.30
2019-01-09T17:47:06.250Z,0.30
2019-01-09T17:49:36.452Z,0.20
2019-01-09T17:52:06.205Z,0.20
2019-01-09T17:54:36.895Z,0.30
2019-01-09T17:57:06.624Z,0.20
2019-01-09T17:59:36.420Z,0.20
2019-01-09T18:02:06.146Z,0.20
2019-01-09T18:04:35.787Z,0.10
2019-01-09T18:07:05.657Z,0.10
2019-01-09T18:09:35.480Z,0.00
2019-01-09T18:12:05.513Z,0.00
2019-01-09T18:14:37.431Z,0.00
2019-01-09T18:17:07.271Z,0.00
2019-01-09T18:19:36.950Z,-0.10
2019-01-09T18:22:07.098Z,-0.10
2019-01-09T18:24:38.704Z,-0.20
2019-01-09T18:27:08.471Z,-0.20
2019-01-09T18:29:39.047Z,-0.20
2019-01-09T18:32:20.609Z,-0.20
2019-01-09T18:34:50.719Z,-0.30
2019-01-09T18:37:42.833Z,-0.30
2019-01-09T18:40:38.333Z,-0.30
2019-01-09T18:43:23.209Z,-0.20
2019-01-09T18:45:55.947Z,-0.20
2019-01-09T18:48:47.962Z,-0.20
2019-01-09T18:51:23.607Z,-0.20
2019-01-09T18:53:53.298Z,-0.10
2019-01-09T18:56:23.006Z,-0.10
2019-01-09T18:58:53.754Z,0.00
2019-01-09T19:01:23.575Z,0.00
2019-01-09T19:03:53.309Z,0.00
2019-01-09T19:06:23.227Z,-0.10
2019-01-09T19:08:53.009Z,-0.10
2019-01-09T19:11:22.727Z,-0.10
2019-01-09T19:13:52.824Z,-0.10
2019-01-09T19:16:22.730Z,-0.10
2019-01-09T19:18:54.227Z,-0.20
2019-01-09T19:21:24.060Z,-0.20
2019-01-09T19:23:54.312Z,-0.20
2019-01-09T19:26:24.501Z,-0.20
2019-01-09T19:28:54.279Z,-0.20
2019-01-09T19:31:24.139Z,-0.20
2019-01-09T19:33:53.884Z,-0.30
2019-01-09T19:36:24.046Z,-0.30
2019-01-09T19:38:53.896Z,-0.40
2019-01-09T19:41:23.746Z,-0.30
2019-01-09T19:43:53.447Z,-0.30
2019-01-09T19:46:23.250Z,-0.30
2019-01-09T19:48:53.013Z,-0.30
2019-01-09T19:51:23.034Z,-0.30
2019-01-09T19:53:53.035Z,-0.30
2019-01-09T19:56:23.708Z,-0.30
2019-01-09T19:58:53.746Z,-0.20
2019-01-09T20:01:23.488Z,-0.20
2019-01-09T20:03:53.465Z,-0.20
2019-01-09T20:06:23.429Z,-0.20
2019-01-09T20:08:53.364Z,-0.20
2019-01-09T20:11:26.641Z,-0.20
2019-01-09T20:13:54.715Z,-0.20
2019-01-09T20:16:24.896Z,-0.20
2019-01-09T20:18:54.931Z,-0.20
2019-01-09T20:21:24.925Z,-0.20
2019-01-09T20:23:54.792Z,-0.20
2019-01-09T20:26:24.377Z,-0.20
2019-01-09T20:28:54.034Z,-0.30
2019-01-09T20:31:23.860Z,-0.30
2019-01-09T20:33:53.613Z,-0.30
2019-01-09T20:36:23.599Z,-0.30
2019-01-09T20:38:53.470Z,-0.30
2019-01-09T20:41:23.225Z,-0.30
2019-01-09T20:43:52.971Z,-0.30
2019-01-09T20:46:23.013Z,-0.30
2019-01-09T20:48:53.235Z,-0.20
2019-01-09T20:51:22.931Z,-0.20
2019-01-09T20:53:53.652Z,-0.20
2019-01-09T20:56:23.424Z,-0.20
2019-01-09T20:58:53.207Z,-0.20
2019-01-09T21:01:23.035Z,-0.30
2019-01-09T21:03:52.895Z,-0.30
2019-01-09T21:06:22.778Z,-0.30
2019-01-09T21:08:59.444Z,-0.30
2019-01-09T21:11:24.023Z,-0.30
2019-01-09T21:13:53.788Z,-0.30
2019-01-09T21:16:23.566Z,-0.20
2019-01-09T21:18:53.340Z,-0.20
2019-01-09T21:21:23.029Z,-0.20
2019-01-09T21:23:52.809Z,-0.20
2019-01-09T21:26:22.649Z,-0.20
2019-01-09T21:28:52.617Z,-0.20
2019-01-09T21:31:22.355Z,-0.20
2019-01-09T21:33:52.137Z,-0.20
2019-01-09T21:36:22.075Z,-0.20
2019-01-09T21:38:51.846Z,-0.20
2019-01-09T21:41:21.571Z,-0.20
2019-01-09T21:43:51.313Z,-0.30
2019-01-09T21:46:21.081Z,-0.30
2019-01-09T21:48:51.541Z,-0.30
2019-01-09T21:51:22.119Z,-0.30
2019-01-09T21:53:51.966Z,-0.30
2019-01-09T21:56:22.127Z,-0.30
2019-01-09T21:58:53.006Z,-0.30
2019-01-09T22:01:22.668Z,-0.40
2019-01-09T22:03:52.360Z,-0.40
2019-01-09T22:06:22.166Z,-0.50
2019-01-09T22:08:51.886Z,-0.50
2019-01-09T22:11:21.670Z,-0.50
2019-01-09T22:13:51.606Z,-0.50
2019-01-09T22:16:21.344Z,-0.50
2019-01-09T22:18:51.939Z,-0.60
2019-01-09T22:21:21.756Z,-0.60
2019-01-09T22:23:52.465Z,-0.60
2019-01-09T22:26:22.181Z,-0.50
2019-01-09T22:28:51.919Z,-0.60
2019-01-09T22:31:21.733Z,-0.50
2019-01-09T22:33:52.186Z,-0.50
2019-01-09T22:36:22.040Z,-0.50
2019-01-09T22:38:51.770Z,-0.50
2019-01-09T22:41:21.532Z,-0.50
2019-01-09T22:43:51.366Z,-0.50
2019-01-09T22:46:21.217Z,-0.50
2019-01-09T22:48:51.069Z,-0.50
2019-01-09T22:51:20.679Z,-0.50
2019-01-09T22:53:50.364Z,-0.40
2019-01-09T22:56:20.124Z,-0.40
2019-01-09T22:58:49.790Z,-0.40
2019-01-09T23:01:19.546Z,-0.50
2019-01-09T23:03:49.352Z,-0.50
2019-01-09T23:06:19.109Z,-0.40
2019-01-09T23:08:49.119Z,-0.40
2019-01-09T23:11:19.913Z,-0.50
2019-01-09T23:13:49.662Z,-0.50
2019-01-09T23:16:19.677Z,-0.50
2019-01-09T23:18:49.596Z,-0.50
2019-01-09T23:21:19.264Z,-0.40
2019-01-09T23:23:49.921Z,-0.40
2019-01-09T23:26:19.681Z,-0.50
2019-01-09T23:28:49.417Z,-0.50
2019-01-09T23:31:19.231Z,-0.50
2019-01-09T23:33:48.989Z,-0.50
2019-01-09T23:36:18.926Z,-0.50
2019-01-09T23:38:48.624Z,-0.50
2019-01-09T23:41:18.464Z,-0.50
2019-01-09T23:43:48.212Z,-0.50
2019-01-09T23:46:17.935Z,-0.50
2019-01-09T23:48:47.566Z,-0.50
2019-01-09T23:51:17.363Z,-0.50
2019-01-09T23:53:47.057Z,-0.50
2019-01-09T23:56:17.698Z,-0.50
2019-01-09T23:58:47.315Z,-0.50
